createdAt,value
2018-09-15T00:00:58.079Z,7.80
2018-09-15T00:03:33.559Z,8.55
2018-09-15T00:06:08.784Z,11.65
2018-09-15T00:08:44.342Z,8.35
2018-09-15T00:11:19.697Z,8.43
2018-09-15T00:13:55.357Z,13.70
2018-09-15T00:16:30.611Z,11.20
2018-09-15T00:19:06.194Z,8.73
2018-09-15T00:21:41.634Z,11.53
2018-09-15T00:24:17.042Z,11.33
2018-09-15T00:26:52.458Z,7.70
2018-09-15T00:29:28.025Z,8.93
2018-09-15T00:32:03.434Z,8.78
2018-09-15T00:34:38.886Z,7.10
2018-09-15T00:37:14.123Z,8.05
2018-09-15T00:39:49.796Z,8.15
2018-09-15T00:42:25.290Z,10.58
2018-09-15T00:45:07.345Z,7.28
2018-09-15T00:47:42.526Z,10.00
2018-09-15T00:50:17.971Z,7.90
2018-09-15T00:52:53.429Z,8.83
2018-09-15T00:55:28.840Z,8.48
2018-09-15T00:58:04.267Z,7.87
2018-09-15T01:00:39.822Z,9.30
2018-09-15T01:03:15.259Z,9.85
2018-09-15T01:05:50.986Z,8.55
2018-09-15T01:08:26.408Z,8.48
2018-09-15T01:11:01.692Z,7.70
2018-09-15T01:13:37.317Z,6.70
2018-09-15T01:16:12.788Z,7.35
2018-09-15T01:18:47.946Z,9.15
2018-09-15T01:21:23.465Z,9.83
2018-09-15T01:23:58.781Z,7.20
2018-09-15T01:26:34.175Z,6.67
2018-09-15T01:29:09.348Z,8.13
2018-09-15T01:31:44.865Z,7.22
2018-09-15T01:34:20.337Z,7.17
2018-09-15T01:36:55.786Z,5.67
2018-09-15T01:39:31.026Z,9.08
2018-09-15T01:42:06.506Z,6.80
2018-09-15T01:44:41.981Z,6.80
2018-09-15T01:47:17.341Z,5.75
2018-09-15T01:49:52.694Z,8.03
2018-09-15T01:52:28.045Z,6.55
2018-09-15T01:55:03.361Z,5.95
2018-09-15T01:57:38.989Z,5.08
2018-09-15T02:00:14.805Z,5.00
2018-09-15T02:02:50.445Z,5.47
2018-09-15T02:05:25.643Z,5.08
2018-09-15T02:08:01.294Z,5.53
2018-09-15T02:10:36.520Z,5.30
2018-09-15T02:13:12.013Z,6.45
2018-09-15T02:15:47.340Z,6.95
2018-09-15T02:18:22.772Z,5.75
2018-09-15T02:20:58.013Z,6.75
2018-09-15T02:23:33.446Z,5.60
2018-09-15T02:26:09.284Z,5.90
2018-09-15T02:28:44.706Z,7.03
2018-09-15T02:31:20.399Z,5.55
2018-09-15T02:33:55.828Z,6.12
2018-09-15T02:37:30.011Z,6.03
2018-09-15T02:40:05.529Z,6.62
2018-09-15T02:42:41.009Z,7.00
2018-09-15T02:45:16.445Z,6.78
2018-09-15T02:47:51.929Z,6.67
2018-09-15T02:50:27.470Z,6.97
2018-09-15T02:53:02.911Z,6.67
2018-09-15T02:55:38.405Z,7.42
2018-09-15T02:58:13.872Z,6.60
2018-09-15T03:00:49.370Z,6.45
2018-09-15T03:03:24.860Z,6.97
2018-09-15T03:06:00.345Z,6.95
2018-09-15T03:08:35.674Z,6.67
2018-09-15T03:11:11.093Z,6.65
2018-09-15T03:13:46.606Z,6.65
2018-09-15T03:16:22.152Z,6.70
2018-09-15T03:18:57.589Z,7.08
2018-09-15T03:21:33.112Z,6.40
2018-09-15T03:24:08.645Z,7.30
2018-09-15T03:26:44.052Z,7.90
2018-09-15T03:29:19.554Z,6.85
2018-09-15T03:31:54.939Z,6.70
2018-09-15T03:34:30.382Z,6.22
2018-09-15T03:37:05.761Z,5.95
2018-09-15T03:39:41.160Z,7.92
2018-09-15T03:42:16.534Z,7.42
2018-09-15T03:44:51.748Z,7.70
2018-09-15T03:47:27.193Z,7.90
2018-09-15T03:50:02.580Z,7.17
2018-09-15T03:52:37.937Z,6.78
2018-09-15T03:55:13.854Z,6.92
2018-09-15T03:57:49.254Z,7.75
2018-09-15T04:00:24.460Z,7.12
2018-09-15T04:02:59.892Z,7.40
2018-09-15T04:05:35.201Z,7.28
2018-09-15T04:08:10.638Z,6.92
2018-09-15T04:10:46.081Z,6.78
2018-09-15T04:13:21.639Z,7.50
2018-09-15T04:15:57.113Z,6.72
2018-09-15T04:18:32.633Z,6.65
2018-09-15T04:21:07.858Z,7.60
2018-09-15T04:23:43.268Z,8.05
2018-09-15T04:26:18.544Z,6.90
2018-09-15T04:28:54.004Z,8.33
2018-09-15T04:31:29.331Z,6.95
2018-09-15T04:34:04.745Z,7.05
2018-09-15T04:36:40.212Z,6.95
2018-09-15T04:39:15.762Z,7.58
2018-09-15T04:41:51.251Z,7.25
2018-09-15T04:44:26.619Z,7.42
2018-09-15T04:47:02.017Z,7.65
2018-09-15T04:49:37.424Z,8.10
2018-09-15T04:52:12.825Z,6.87
2018-09-15T04:54:48.284Z,8.20
2018-09-15T04:57:24.060Z,6.50
2018-09-15T04:59:59.486Z,6.85
2018-09-15T05:02:34.668Z,8.20
2018-09-15T05:05:10.182Z,7.10
2018-09-15T05:07:45.653Z,6.53
2018-09-15T05:10:21.245Z,6.20
2018-09-15T05:12:56.970Z,6.30
2018-09-15T05:15:32.303Z,6.42
2018-09-15T05:18:07.757Z,6.87
2018-09-15T05:20:43.273Z,6.97
2018-09-15T05:23:18.829Z,6.75
2018-09-15T05:25:54.177Z,6.53
2018-09-15T05:28:29.378Z,7.10
2018-09-15T05:31:04.813Z,7.60
2018-09-15T05:33:40.196Z,6.85
2018-09-15T05:36:15.682Z,7.22
2018-09-15T05:38:51.139Z,7.03
2018-09-15T05:41:26.600Z,6.70
2018-09-15T05:44:01.901Z,6.65
2018-09-15T05:46:37.464Z,6.17
2018-09-15T05:49:12.756Z,7.55
2018-09-15T05:51:48.237Z,6.22
2018-09-15T05:54:23.413Z,6.75
2018-09-15T05:56:58.854Z,6.53
2018-09-15T05:59:34.296Z,6.30
2018-09-15T06:02:09.792Z,6.92
2018-09-15T06:04:45.277Z,6.45
2018-09-15T06:07:20.745Z,7.00
2018-09-15T06:09:56.248Z,6.80
2018-09-15T06:12:38.659Z,6.30
2018-09-15T06:15:14.007Z,6.45
2018-09-15T06:17:49.445Z,6.33
2018-09-15T06:20:24.750Z,6.10
2018-09-15T06:23:00.435Z,5.70
2018-09-15T06:25:35.900Z,5.70
2018-09-15T06:28:11.412Z,5.90
2018-09-15T06:30:46.819Z,6.20
2018-09-15T06:33:22.509Z,7.03
2018-09-15T06:35:57.833Z,5.67
2018-09-15T06:38:33.402Z,5.35
2018-09-15T06:41:08.688Z,6.30
2018-09-15T06:43:44.315Z,5.85
2018-09-15T06:46:19.718Z,7.62
2018-09-15T06:48:55.179Z,5.65
2018-09-15T06:51:30.689Z,5.85
2018-09-15T06:54:06.337Z,5.92
2018-09-15T06:56:42.092Z,5.70
2018-09-15T06:59:17.648Z,6.10
2018-09-15T07:01:52.889Z,5.00
2018-09-15T07:04:28.337Z,5.30
2018-09-15T07:07:03.621Z,5.40
2018-09-15T07:09:39.159Z,5.20
2018-09-15T07:12:14.514Z,5.77
2018-09-15T07:14:50.375Z,5.17
2018-09-15T07:17:25.809Z,11.00
2018-09-15T07:20:01.473Z,5.50
2018-09-15T07:22:36.860Z,5.60
2018-09-15T07:25:12.537Z,5.20
2018-09-15T07:27:47.844Z,5.40
2018-09-15T07:30:23.324Z,6.97
2018-09-15T07:32:58.609Z,5.40
2018-09-15T07:35:34.118Z,5.47
2018-09-15T07:38:09.612Z,4.85
2018-09-15T07:40:45.145Z,5.62
2018-09-15T07:43:20.678Z,5.30
2018-09-15T07:45:56.312Z,5.50
2018-09-15T07:48:31.660Z,5.20
2018-09-15T07:51:07.504Z,5.53
2018-09-15T07:53:42.832Z,4.85
2018-09-15T07:56:18.376Z,4.75
2018-09-15T07:58:54.000Z,5.12
2018-09-15T08:01:29.689Z,5.20
2018-09-15T08:04:04.909Z,5.20
2018-09-15T08:06:40.499Z,4.53
2018-09-15T08:09:15.722Z,5.00
2018-09-15T08:11:51.219Z,4.33
2018-09-15T08:14:26.781Z,5.20
2018-09-15T08:17:02.177Z,4.65
2018-09-15T08:19:37.526Z,4.50
2018-09-15T08:22:13.040Z,4.50
2018-09-15T08:24:48.504Z,5.12
2018-09-15T08:27:24.292Z,6.00
2018-09-15T08:29:59.706Z,5.05
2018-09-15T08:32:35.224Z,4.87
2018-09-15T08:35:10.601Z,4.40
2018-09-15T08:37:46.141Z,4.30
2018-09-15T08:40:22.070Z,4.70
2018-09-15T08:42:57.836Z,4.62
2018-09-15T08:45:33.880Z,4.55
2018-09-15T08:48:09.349Z,4.25
2018-09-15T08:50:44.696Z,4.60
2018-09-15T08:53:20.186Z,4.55
2018-09-15T08:55:55.496Z,4.55
2018-09-15T08:58:30.893Z,4.60
2018-09-15T09:01:06.281Z,5.25
2018-09-15T09:06:01.543Z,4.77
2018-09-15T09:08:37.068Z,4.70
2018-09-15T09:11:12.859Z,4.33
2018-09-15T09:13:48.349Z,4.70
2018-09-15T09:16:23.560Z,4.90
2018-09-15T09:18:59.138Z,4.83
2018-09-15T09:21:34.552Z,4.47
2018-09-15T09:24:10.118Z,4.97
2018-09-15T09:26:45.439Z,5.10
2018-09-15T09:29:21.823Z,4.73
2018-09-15T09:31:57.009Z,5.00
2018-09-15T09:34:32.385Z,4.47
2018-09-15T09:37:07.938Z,4.50
2018-09-15T09:39:43.339Z,4.43
2018-09-15T09:42:18.769Z,4.87
2018-09-15T09:44:54.289Z,4.00
2018-09-15T09:47:29.624Z,4.40
2018-09-15T09:50:05.065Z,3.97
2018-09-15T09:52:40.565Z,4.30
2018-09-15T09:55:15.970Z,4.17
2018-09-15T09:57:51.391Z,4.47
2018-09-15T10:00:32.129Z,4.43
2018-09-15T10:03:07.462Z,4.63
2018-09-15T10:05:42.840Z,4.33
2018-09-15T10:08:18.312Z,4.40
2018-09-15T10:10:53.855Z,4.23
2018-09-15T10:13:29.395Z,3.90
2018-09-15T10:16:04.917Z,3.70
2018-09-15T10:18:40.396Z,4.20
2018-09-15T10:21:15.988Z,4.67
2018-09-15T10:23:51.316Z,4.13
2018-09-15T10:26:26.680Z,4.30
2018-09-15T10:29:01.962Z,4.63
2018-09-15T10:31:37.622Z,4.50
2018-09-15T10:34:13.130Z,3.80
2018-09-15T10:36:48.538Z,4.07
2018-09-15T10:39:23.863Z,3.47
2018-09-15T10:41:59.324Z,3.60
2018-09-15T10:44:34.693Z,3.30
2018-09-15T10:47:10.393Z,3.17
2018-09-15T10:49:45.937Z,3.50
2018-09-15T10:52:21.545Z,3.33
2018-09-15T10:54:56.764Z,2.90
2018-09-15T10:57:32.145Z,3.30
2018-09-15T11:00:07.624Z,2.90
2018-09-15T11:02:43.176Z,3.00
2018-09-15T11:05:18.539Z,2.83
2018-09-15T11:07:53.969Z,2.90
2018-09-15T11:10:29.244Z,3.33
2018-09-15T11:13:05.189Z,2.83
2018-09-15T11:15:40.585Z,3.20
2018-09-15T11:18:16.172Z,2.20
2018-09-15T11:20:51.901Z,2.20
2018-09-15T11:23:27.357Z,3.00
2018-09-15T11:26:02.684Z,2.50
2018-09-15T11:28:38.118Z,2.87
2018-09-15T11:31:13.521Z,2.30
2018-09-15T11:33:49.128Z,2.40
2018-09-15T11:36:24.602Z,2.50
2018-09-15T11:38:59.897Z,2.50
2018-09-15T11:41:35.269Z,3.00
2018-09-15T11:44:10.676Z,1.93
2018-09-15T11:46:45.972Z,2.47
2018-09-15T11:49:21.569Z,1.60
2018-09-15T11:51:56.908Z,2.17
2018-09-15T11:54:32.351Z,1.60
2018-09-15T11:57:07.824Z,1.93
2018-09-15T11:59:43.169Z,1.90
2018-09-15T12:02:22.380Z,4.33
2018-09-15T12:04:58.565Z,3.42
2018-09-15T12:07:33.948Z,1.87
2018-09-15T12:10:16.062Z,2.00
2018-09-15T12:12:51.421Z,3.87
2018-09-15T12:15:27.013Z,2.80
2018-09-15T12:18:02.353Z,1.75
2018-09-15T12:20:37.843Z,1.90
2018-09-15T12:23:13.622Z,2.00
2018-09-15T12:25:48.937Z,2.60
2018-09-15T12:28:24.441Z,3.90
2018-09-15T12:31:00.081Z,2.85
2018-09-15T12:33:35.344Z,7.58
2018-09-15T12:36:10.865Z,3.70
2018-09-15T12:38:46.032Z,4.65
2018-09-15T12:41:21.503Z,1.98
2018-09-15T12:43:56.822Z,5.42
2018-09-15T12:46:32.245Z,4.25
2018-09-15T12:49:07.710Z,4.03
2018-09-15T12:51:43.149Z,4.87
2018-09-15T12:54:18.954Z,2.60
2018-09-15T12:56:54.549Z,5.50
2018-09-15T12:59:30.061Z,2.65
2018-09-15T13:02:05.417Z,2.20
2018-09-15T13:04:40.769Z,2.40
2018-09-15T13:07:16.317Z,2.72
2018-09-15T13:09:51.563Z,3.08
2018-09-15T13:12:27.056Z,4.33
2018-09-15T13:15:02.726Z,2.67
2018-09-15T13:17:38.134Z,3.15
2018-09-15T13:20:13.539Z,3.20
2018-09-15T13:22:49.185Z,3.00
2018-09-15T13:25:24.401Z,3.25
2018-09-15T13:28:00.074Z,2.55
2018-09-15T13:30:35.467Z,2.45
2018-09-15T13:33:11.183Z,2.50
2018-09-15T13:35:46.451Z,3.43
2018-09-15T13:38:22.161Z,2.70
2018-09-15T13:40:57.644Z,2.30
2018-09-15T13:43:33.262Z,2.53
2018-09-15T13:46:08.734Z,4.27
2018-09-15T13:48:44.071Z,2.53
2018-09-15T13:51:19.509Z,3.80
2018-09-15T13:53:55.043Z,3.10
2018-09-15T13:56:30.600Z,2.50
2018-09-15T13:59:06.345Z,4.87
2018-09-15T14:01:41.817Z,2.70
2018-09-15T14:04:17.434Z,4.00
2018-09-15T14:06:52.898Z,3.60
2018-09-15T14:09:28.529Z,2.63
2018-09-15T14:12:03.998Z,2.63
2018-09-15T14:14:39.622Z,2.10
2018-09-15T14:17:15.030Z,3.20
2018-09-15T14:19:50.407Z,3.20
2018-09-15T14:22:25.761Z,2.60
2018-09-15T14:25:01.151Z,2.77
2018-09-15T14:27:36.302Z,2.20
2018-09-15T14:30:11.705Z,2.50
2018-09-15T14:32:47.164Z,2.50
2018-09-15T14:35:22.576Z,2.63
2018-09-15T14:37:57.985Z,2.30
2018-09-15T14:40:33.608Z,2.90
2018-09-15T14:43:09.015Z,2.50
2018-09-15T14:45:44.342Z,2.10
2018-09-15T14:48:20.018Z,2.60
2018-09-15T14:50:55.332Z,2.27
2018-09-15T14:53:30.712Z,2.73
2018-09-15T14:56:06.345Z,2.50
2018-09-15T14:58:41.668Z,4.13
2018-09-15T15:01:17.233Z,11.07
2018-09-15T15:03:52.448Z,3.93
2018-09-15T15:06:28.067Z,4.50
2018-09-15T15:09:03.778Z,4.00
2018-09-15T15:11:39.432Z,3.00
2018-09-15T15:14:14.990Z,3.67
2018-09-15T15:16:50.649Z,2.17
2018-09-15T15:19:25.921Z,4.33
2018-09-15T15:22:01.415Z,3.50
2018-09-15T15:24:36.828Z,1.80
2018-09-15T15:27:12.289Z,2.00
2018-09-15T15:29:47.464Z,2.10
2018-09-15T15:32:22.885Z,1.90
2018-09-15T15:34:58.312Z,2.17
2018-09-15T15:37:33.725Z,2.90
2018-09-15T15:40:09.169Z,2.53
2018-09-15T15:42:44.866Z,3.00
2018-09-15T15:45:20.369Z,3.60
2018-09-15T15:47:55.917Z,2.30
2018-09-15T15:50:31.412Z,2.70
2018-09-15T15:53:06.966Z,3.10
2018-09-15T15:55:42.296Z,2.87
2018-09-15T15:58:17.859Z,2.63
2018-09-15T16:00:53.357Z,2.90
2018-09-15T16:03:28.735Z,2.23
2018-09-15T16:06:04.214Z,5.97
2018-09-15T16:08:39.732Z,7.53
2018-09-15T16:11:15.228Z,8.20
2018-09-15T16:13:51.926Z,3.40
2018-09-15T16:16:27.245Z,2.50
2018-09-15T16:19:02.885Z,7.33
2018-09-15T16:21:38.308Z,2.73
2018-09-15T16:24:13.737Z,4.60
2018-09-15T16:26:49.182Z,1.90
2018-09-15T16:29:24.597Z,4.23
2018-09-15T16:32:00.053Z,2.20
2018-09-15T16:34:36.409Z,3.83
2018-09-15T16:37:11.671Z,2.77
2018-09-15T16:39:47.318Z,2.10
2018-09-15T16:42:22.941Z,2.90
2018-09-15T16:44:58.486Z,2.45
2018-09-15T16:47:34.037Z,2.60
2018-09-15T16:50:10.670Z,2.85
2018-09-15T16:52:46.053Z,3.35
2018-09-15T16:55:21.644Z,3.10
2018-09-15T16:57:57.125Z,5.72
2018-09-15T17:00:32.576Z,8.15
2018-09-15T17:03:07.769Z,4.83
2018-09-15T17:05:43.152Z,9.03
2018-09-15T17:08:18.532Z,4.97
2018-09-15T17:10:54.084Z,7.12
2018-09-15T17:13:29.869Z,3.02
2018-09-15T17:16:05.295Z,11.88
2018-09-15T17:18:40.650Z,6.53
2018-09-15T17:21:16.082Z,6.25
2018-09-15T17:23:51.408Z,7.05
2018-09-15T17:26:27.980Z,15.38
2018-09-15T17:29:03.436Z,12.13
2018-09-15T17:31:38.833Z,4.08
2018-09-15T17:34:14.140Z,8.28
2018-09-15T17:36:49.963Z,5.70
2018-09-15T17:39:25.232Z,4.22
2018-09-15T17:42:00.775Z,4.78
2018-09-15T17:44:36.093Z,7.50
2018-09-15T17:47:11.440Z,5.30
2018-09-15T17:49:46.653Z,3.45
2018-09-15T17:52:22.337Z,5.35
2018-09-15T17:54:57.881Z,4.80
2018-09-15T17:57:33.246Z,4.70
2018-09-15T18:00:09.069Z,5.33
2018-09-15T18:02:44.533Z,4.62
2018-09-15T18:05:19.931Z,6.17
2018-09-15T18:07:55.480Z,8.10
2018-09-15T18:10:31.505Z,5.60
2018-09-15T18:13:07.232Z,4.20
2018-09-15T18:15:42.733Z,11.90
2018-09-15T18:18:18.249Z,9.43
2018-09-15T18:20:53.805Z,10.88
2018-09-15T18:23:29.448Z,9.33
2018-09-15T18:26:04.925Z,11.63
2018-09-15T18:28:40.376Z,7.65
2018-09-15T18:31:15.647Z,16.37
2018-09-15T18:33:51.181Z,7.70
2018-09-15T18:36:26.956Z,11.03
2018-09-15T18:39:02.470Z,15.70
2018-09-15T18:41:37.923Z,16.73
2018-09-15T18:44:13.382Z,3.15
2018-09-15T18:46:48.836Z,9.63
2018-09-15T18:49:24.365Z,12.18
2018-09-15T18:51:59.944Z,6.55
2018-09-15T18:54:35.288Z,9.25
2018-09-15T18:57:10.719Z,6.72
2018-09-15T18:59:46.827Z,11.10
2018-09-15T19:02:22.121Z,5.97
2018-09-15T19:04:57.705Z,8.43
2018-09-15T19:07:33.165Z,6.62
2018-09-15T19:10:08.501Z,9.03
2018-09-15T19:12:43.749Z,9.98
2018-09-15T19:15:19.489Z,17.67
2018-09-15T19:17:54.798Z,25.72
2018-09-15T19:20:30.961Z,9.38
2018-09-15T19:23:06.429Z,32.33
2018-09-15T19:25:41.932Z,30.60
2018-09-15T19:28:17.324Z,14.25
2018-09-15T19:30:53.034Z,21.00
2018-09-15T19:33:28.452Z,32.42
2018-09-15T19:36:04.957Z,26.52
2018-09-15T19:38:40.415Z,30.75
2018-09-15T19:41:16.133Z,21.35
2018-09-15T19:43:51.489Z,11.38
2018-09-15T19:46:26.957Z,26.70
2018-09-15T19:49:02.315Z,15.88
2018-09-15T19:51:37.702Z,23.50
2018-09-15T19:54:13.178Z,23.00
2018-09-15T19:56:48.850Z,13.65
2018-09-15T19:59:24.369Z,27.07
2018-09-15T20:01:59.766Z,19.50
2018-09-15T20:04:35.188Z,6.28
2018-09-15T20:07:10.835Z,30.08
2018-09-15T20:09:46.221Z,23.10
2018-09-15T20:12:21.597Z,22.73
2018-09-15T20:14:57.174Z,29.98
2018-09-15T20:17:31.333Z,37.00
2018-09-15T20:20:05.355Z,27.42
2018-09-15T20:22:40.935Z,40.73
2018-09-15T20:25:16.292Z,21.97
2018-09-15T20:27:51.913Z,35.28
2018-09-15T20:30:27.276Z,36.13
2018-09-15T20:33:03.015Z,23.45
2018-09-15T20:35:38.441Z,23.30
2018-09-15T20:38:13.925Z,27.70
2018-09-15T20:40:49.165Z,37.88
2018-09-15T20:43:24.684Z,59.58
2018-09-15T20:46:00.098Z,45.78
2018-09-15T20:48:35.573Z,43.10
2018-09-15T20:51:11.281Z,32.33
2018-09-15T20:53:46.865Z,29.95
2018-09-15T20:56:22.449Z,37.88
2018-09-15T20:58:58.254Z,39.33
2018-09-15T21:01:34.077Z,28.40
2018-09-15T21:04:09.772Z,16.12
2018-09-15T21:06:45.337Z,8.90
2018-09-15T21:09:21.005Z,16.17
2018-09-15T21:11:56.513Z,16.87
2018-09-15T21:14:32.286Z,18.92
2018-09-15T21:17:08.243Z,14.20
2018-09-15T21:19:43.890Z,37.45
2018-09-15T21:22:19.185Z,52.58
2018-09-15T21:24:54.684Z,41.33
2018-09-15T21:27:29.896Z,52.10
2018-09-15T21:30:05.681Z,38.48
2018-09-15T21:32:41.097Z,45.10
2018-09-15T21:35:16.650Z,39.08
2018-09-15T21:37:52.029Z,38.75
2018-09-15T21:40:27.455Z,23.32
2018-09-15T21:43:02.920Z,22.70
2018-09-15T21:45:38.411Z,41.68
2018-09-15T21:48:13.661Z,45.88
2018-09-15T21:50:49.141Z,36.17
2018-09-15T21:53:24.695Z,29.72
2018-09-15T21:56:02.039Z,13.62
2018-09-15T21:58:37.649Z,41.42
2018-09-15T22:01:13.165Z,29.55
2018-09-15T22:03:53.808Z,20.45
2018-09-15T22:06:30.186Z,18.57
2018-09-15T22:09:09.208Z,19.50
2018-09-15T22:11:44.976Z,22.87
2018-09-15T22:14:20.491Z,25.05
2018-09-15T22:16:56.040Z,16.95
2018-09-15T22:19:31.816Z,19.52
2018-09-15T22:22:07.460Z,24.70
2018-09-15T22:24:42.912Z,10.20
2018-09-15T22:27:18.432Z,17.85
2018-09-15T22:29:53.787Z,28.02
2018-09-15T22:32:29.204Z,11.18
2018-09-15T22:35:04.396Z,27.60
2018-09-15T22:37:39.941Z,12.45
2018-09-15T22:40:15.285Z,26.95
2018-09-15T22:42:50.764Z,30.85
2018-09-15T22:45:26.177Z,16.73
2018-09-15T22:48:01.545Z,20.15
2018-09-15T22:50:37.006Z,17.48
2018-09-15T22:53:12.448Z,18.23
2018-09-15T22:55:47.927Z,17.87
2018-09-15T22:58:23.388Z,18.15
2018-09-15T23:00:59.018Z,13.58
2018-09-15T23:03:34.533Z,16.23
2018-09-15T23:06:16.605Z,13.55
2018-09-15T23:08:52.149Z,17.57
2018-09-15T23:11:27.402Z,12.35
2018-09-15T23:14:02.936Z,12.82
2018-09-15T23:16:38.185Z,10.23
2018-09-15T23:19:13.718Z,6.53
2018-09-15T23:21:49.106Z,12.40
2018-09-15T23:24:24.697Z,11.68
2018-09-15T23:27:00.122Z,9.23
2018-09-15T23:29:35.532Z,6.95
2018-09-15T23:32:10.956Z,9.75
2018-09-15T23:34:46.593Z,8.15
2018-09-15T23:37:22.010Z,10.15
2018-09-15T23:39:57.653Z,9.05
2018-09-15T23:42:32.980Z,10.65
2018-09-15T23:45:08.394Z,7.78
2018-09-15T23:47:43.849Z,8.60
2018-09-15T23:50:19.218Z,5.90
2018-09-15T23:52:54.673Z,7.50
2018-09-15T23:55:30.451Z,8.48
2018-09-15T23:58:06.775Z,8.70
